Latest Coastal Weather Observations for Mardie

IDW60701

Issued at 4:25 am WST Tuesday 25 November 2014 (issued every 10 minutes, with the page automatically refreshed every 10 minutes)

About coastal observations | Map of coastal stations | Coastal observations for WA | Marine services | Other Formats
Station Details ID: 005008 Name: MARDIE Lat: -21.19 Lon: 115.98 Height: 11.0 m
Data from the previous 72 hours. | See also: Recent months at Mardie
Date/Time
WST
Temp

°C
Wind Pressure Rain
since 9am
mm
Weather Cloud Vis
km
Sea
Height
m
Swell
Dir
 
Speed
knots
Gust
knots
hPa Trend Height
m
Period
s
Dir
25/04:00am 23.0 WSW 5 6 1009.0 - 0.0 - - - - - - -
25/03:30am 23.4 WSW 5 7 1009.1 - 0.0 - - - - - - -
25/03:00am 23.5 WSW 5 6 1009.0 - 0.0 - - - - - - -
25/02:30am 23.9 SW 5 7 1009.1 - 0.0 - - - - - - -
25/02:00am 24.2 WSW 5 7 1009.1 - 0.0 - - - - - - -
25/01:30am 23.8 WSW 3 4 1009.3 - 0.0 - - - - - - -
25/01:00am 24.2 WSW 4 6 1009.5 - 0.0 - - - - - - -
25/12:30am 24.1 WSW 4 6 1009.6 - 0.0 - - - - - - -
25/12:00am 24.5 WSW 5 7 1009.9 - 0.0 - - - - - - -
 
Date/Time
WST
Temp

°C
Wind Pressure Rain
since 9am
mm
Weather Cloud Vis
km
Sea
Height
m
Swell
Dir
 
Speed
knots
Gust
knots
hPa Trend Height
m
Period
s
Dir
24/11:30pm 24.7 WSW 5 7 1010.0 - 0.0 - - - - - - -
24/11:00pm 24.9 WSW 5 7 1010.2 - 0.0 - - - - - - -
24/10:30pm 25.1 W 6 9 1010.3 - 0.0 - - - - - - -
24/10:00pm 25.3 WSW 8 10 1010.3 - 0.0 - - - - - - -
24/09:30pm 25.6 W 8 11 1010.2 - 0.0 - - - - - - -
24/09:00pm 25.9 W 8 11 1010.0 - 0.0 - - - - - - -
24/08:30pm 26.3 W 7 11 1009.7 - 0.0 - - - - - - -
24/08:00pm 26.4 WSW 8 11 1009.4 - 0.0 - - - - - - -
24/07:30pm 26.6 W 9 11 1009.1 - 0.0 - - - - - - -
24/07:00pm 27.1 W 11 15 1008.7 - 0.0 - - - - - - -
24/06:30pm 28.1 W 11 17 1008.4 - 0.0 - - - - - - -
24/06:00pm 28.8 W 13 17 1008.0 - 0.0 - - - - - - -
24/05:30pm 29.7 WNW 14 18 1007.7 - 0.0 - - - - - - -
24/05:00pm 30.7 WNW 15 19 1007.6 - 0.0 - - - - - - -
24/04:30pm 31.2 WNW 15 19 1007.5 - 0.0 - - - - - - -
24/04:00pm 31.8 WNW 17 20 1007.4 - 0.0 - - - - - - -
24/03:30pm 32.4 WNW 16 20 1007.5 - 0.0 - - - - - - -
24/03:00pm 34.1 WNW 16 19 1007.7 - 0.0 - - - - - - -
24/02:30pm 33.7 WNW 16 20 1008.0 - 0.0 - - - - - - -
24/02:00pm 33.6 WNW 16 20 1008.2 - 0.0 - - - - - - -
24/01:30pm 34.2 WNW 15 17 1008.6 - 0.0 - - - - - - -
24/01:00pm 34.2 WNW 13 17 1008.8 - 0.0 - - - - - - -
24/12:30pm 34.0 WNW 14 18 1009.1 - 0.0 - - - - - - -
24/12:00pm 33.7 WNW 13 16 1009.5 - 0.0 - - - - - - -
24/11:30am 32.7 WNW 12 15 1009.8 - 0.0 - - - - - - -
24/11:00am 32.0 WNW 10 13 1010.2 - 0.0 - - - - - - -
24/10:30am 30.9 WNW 9 14 1010.5 - 0.0 - - - - - - -
24/10:00am 30.8 WNW 8 13 1010.8 - 0.0 - - - - - - -
24/09:30am 30.2 WNW 8 11 1011.0 - 0.0 - - - - - - -
24/09:00am 31.4 W 5 8 1011.0 - 0.0 - - - - - - -
24/08:30am 30.3 WSW 5 7 1010.8 - 0.0 - - - - - - -
24/08:00am 28.7 SW 5 7 1010.8 - 0.0 - - - - - - -
24/07:30am 27.1 SW 6 9 1010.7 - 0.0 - - - - - - -
24/07:00am 24.9 WSW 6 9 1010.6 - 0.0 - - - - - - -
24/06:30am 24.3 SW 7 10 1010.3 - 0.0 - - - - - - -
24/06:00am 22.8 SW 5 7 1010.1 - 0.0 - - - - - - -
24/05:30am 22.1 WSW 5 7 1010.0 - 0.0 - - - - - - -
24/05:00am 21.6 WSW 5 6 1009.8 - 0.0 - - - - - - -
24/04:30am 21.9 WSW 4 6 1009.8 - 0.0 - - - - - - -
24/04:00am 22.0 WSW 4 5 1009.8 - 0.0 - - - - - - -
24/03:30am 22.3 SW 3 4 1009.7 - 0.0 - - - - - - -
24/03:00am 23.0 SW 4 5 1009.5 - 0.0 - - - - - - -
24/02:30am 23.4 SW 5 6 1009.6 - 0.0 - - - - - - -
24/02:00am 23.9 SW 4 6 1009.6 - 0.0 - - - - - - -
24/01:30am 24.4 WSW 5 8 1009.7 - 0.0 - - - - - - -
24/01:00am 24.8 WSW 7 9 1010.0 - 0.0 - - - - - - -
24/12:30am 25.2 WSW 7 9 1010.2 - 0.0 - - - - - - -
24/12:00am 25.4 WSW 7 9 1010.4 - 0.0 - - - - - - -
 
Date/Time
WST
Temp

°C
Wind Pressure Rain
since 9am
mm
Weather Cloud Vis
km
Sea
Height
m
Swell
Dir
 
Speed
knots
Gust
knots
hPa Trend Height
m
Period
s
Dir
23/11:30pm 25.8 WSW 7 9 1010.6 - 0.0 - - - - - - -
23/11:00pm 25.9 WSW 6 9 1010.7 - 0.0 - - - - - - -
23/10:30pm 26.1 WSW 8 11 1010.8 - 0.0 - - - - - - -
23/10:00pm 26.2 WSW 8 10 1010.7 - 0.0 - - - - - - -
23/09:30pm 26.1 W 6 8 1010.6 - 0.0 - - - - - - -
23/09:00pm 26.3 W 5 7 1010.6 - 0.0 - - - - - - -
23/08:30pm 26.5 W 8 10 1010.5 - 0.0 - - - - - - -
23/08:00pm 26.7 W 6 10 1010.3 - 0.0 - - - - - - -
23/07:30pm 27.0 W 9 15 1010.0 - 0.0 - - - - - - -
23/07:00pm 27.5 W 10 13 1009.5 - 0.0 - - - - - - -
23/06:30pm 28.1 W 11 15 1009.3 - 0.0 - - - - - - -
23/06:00pm 28.7 W 15 20 1008.9 - 0.0 - - - - - - -
23/05:30pm 29.2 W 15 21 1008.8 - 0.0 - - - - - - -
23/05:00pm 31.1 W 16 20 1008.6 - 0.0 - - - - - - -
23/04:30pm 31.7 W 15 21 1008.4 - 0.0 - - - - - - -
23/04:00pm 32.0 W 15 20 1008.3 - 0.0 - - - - - - -
23/03:30pm 31.9 W 15 20 1008.3 - 0.0 - - - - - - -
23/03:00pm 32.7 W 15 20 1008.6 - 0.0 - - - - - - -
23/02:30pm 34.4 WNW 15 18 1008.6 - 0.0 - - - - - - -
23/02:00pm 34.3 W 14 18 1008.8 - 0.0 - - - - - - -
23/01:30pm 34.8 WNW 14 19 1008.9 - 0.0 - - - - - - -
23/01:00pm 33.9 WNW 14 19 1009.1 - 0.0 - - - - - - -
23/12:30pm 33.3 WNW 14 18 1009.4 - 0.0 - - - - - - -
23/12:00pm 33.4 WNW 14 19 1009.7 - 0.0 - - - - - - -
23/11:30am 33.3 WNW 12 16 1010.0 - 0.0 - - - - - - -
23/11:00am 33.4 WNW 10 16 1010.2 - 0.0 - - - - - - -
23/10:30am 33.1 WNW 8 12 1010.5 - 0.0 - - - - - - -
23/10:00am 33.5 WSW 7 12 1010.6 - 0.0 - - - - - - -
23/09:30am 32.0 SSW 5 8 1010.7 - 0.0 - - - - - - -
23/09:00am 30.7 SW 6 10 1010.8 - 0.0 - - - - - - -
23/08:30am 29.5 SSW 7 11 1010.8 - 0.0 - - - - - - -
23/08:00am 27.6 SSW 8 11 1010.8 - 0.0 - - - - - - -
23/07:30am 26.5 SSW 10 14 1010.6 - 0.0 - - - - - - -
23/07:00am 25.2 SSW 9 12 1010.4 - 0.0 - - - - - - -
23/06:30am 23.6 SW 9 11 1010.1 - 0.0 - - - - - - -
23/06:00am 22.7 SW 8 11 1009.8 - 0.0 - - - - - - -
23/05:30am 22.1 WSW 7 9 1009.5 - 0.0 - - - - - - -
23/05:00am 22.1 WSW 6 8 1009.5 - 0.0 - - - - - - -
23/04:30am 22.3 SW 6 8 1009.2 - 0.0 - - - - - - -
23/04:00am 22.5 WSW 5 7 1009.1 - 0.0 - - - - - - -
23/03:30am 22.8 SW 5 8 1009.0 - 0.0 - - - - - - -
23/03:00am 23.6 SW 8 12 1009.0 - 0.0 - - - - - - -
23/02:30am 23.5 SW 7 9 1008.8 - 0.0 - - - - - - -
23/02:00am 23.9 WSW 7 10 1008.9 - 0.0 - - - - - - -
23/01:30am 23.6 WSW 6 8 1008.9 - 0.0 - - - - - - -
23/01:00am 24.1 W 6 8 1009.1 - 0.0 - - - - - - -
23/12:30am 24.8 WSW 7 8 1009.3 - 0.0 - - - - - - -
23/12:00am 25.1 WSW 7 10 1009.5 - 0.0 - - - - - - -
 
Date/Time
WST
Temp

°C
Wind Pressure Rain
since 9am
mm
Weather Cloud Vis
km
Sea
Height
m
Swell
Dir
 
Speed
knots
Gust
knots
hPa Trend Height
m
Period
s
Dir
22/11:30pm 25.1 W 6 9 1009.7 - 0.0 - - - - - - -
22/11:00pm 25.7 W 8 10 1009.9 - 0.0 - - - - - - -
22/10:30pm 25.9 W 7 10 1010.1 - 0.0 - - - - - - -
22/10:00pm 25.9 W 6 8 1010.4 - 0.0 - - - - - - -
22/09:30pm 25.9 W 7 10 1010.3 - 0.0 - - - - - - -
22/09:00pm 25.9 W 8 11 1010.0 - 0.0 - - - - - - -
22/08:30pm 26.0 W 10 14 1009.9 - 0.0 - - - - - - -
22/08:00pm 26.0 W 10 14 1009.8 - 0.0 - - - - - - -
22/07:30pm 26.1 W 11 15 1009.6 - 0.0 - - - - - - -
22/07:00pm 26.5 WNW 11 17 1009.5 - 0.0 - - - - - - -
22/06:30pm 27.3 WNW 12 17 1009.2 - 0.0 - - - - - - -
22/06:00pm 28.9 WNW 13 18 1009.0 - 0.0 - - - - - - -
22/05:30pm 29.9 WNW 14 20 1008.8 - 0.0 - - - - - - -
22/05:00pm 29.8 WNW 16 20 1008.6 - 0.0 - - - - - - -
22/04:30pm 30.3 WNW 16 21 1008.5 - 0.0 - - - - - - -
22/04:00pm 30.7 WNW 16 20 1008.5 - 0.0 - - - - - - -
22/03:30pm 31.8 WNW 15 20 1008.5 - 0.0 - - - - - - -
22/03:00pm 31.9 WNW 14 20 1008.5 - 0.0 - - - - - - -
22/02:30pm 32.9 WNW 14 19 1008.8 - 0.0 - - - - - - -
22/02:00pm 34.0 WNW 15 19 1008.9 - 0.0 - - - - - - -
22/01:30pm 33.3 WNW 15 19 1009.3 - 0.0 - - - - - - -
22/01:00pm 34.4 WNW 13 18 1009.4 - 0.0 - - - - - - -
22/12:30pm 33.8 WNW 13 18 1009.7 - 0.0 - - - - - - -
22/12:00pm 34.5 WNW 12 16 1009.9 - 0.0 - - - - - - -
22/11:30am 33.2 W 12 17 1010.1 - 0.0 - - - - - - -
22/11:00am 32.9 W 9 13 1010.3 - 0.0 - - - - - - -
22/10:30am 33.5 WSW 7 12 1010.8 - 0.0 - - - - - - -
22/10:00am 31.6 WSW 9 13 1010.8 - 0.0 - - - - - - -
22/09:30am 30.1 WSW 7 11 1011.1 - 0.0 - - - - - - -
22/09:00am 29.0 SW 8 12 1011.1 - 0.0 - - - - - - -
22/08:30am 27.4 SW 8 12 1011.3 - 0.0 - - - - - - -
22/08:00am 26.1 SW 10 14 1011.0 - 0.0 - - - - - - -
22/07:30am 24.9 SW 10 14 1011.0 - 0.0 - - - - - - -
22/07:00am 23.0 SW 9 12 1011.1 - 0.0 - - - - - - -
22/06:30am 21.9 SW 8 12 1010.9 - 0.0 - - - - - - -
22/06:00am 21.2 WSW 7 10 1010.3 - 0.0 - - - - - - -
22/05:30am 20.6 WSW 6 9 1010.1 - 0.0 - - - - - - -
22/05:00am 20.8 WSW 8 10 1009.7 - 0.0 - - - - - - -
22/04:30am 21.1 WSW 6 8 1009.5 - 0.0 - - - - - - -

Other Formats:

Comma delimited format used in spreadsheet applications
http://www.bom.gov.au/fwo/IDW60701/IDW60701.94306.axf

JavaScript Object Notation format (JSON) in row-major order
http://www.bom.gov.au/fwo/IDW60701/IDW60701.94306.json